sensor_id;sensor_type;location;lat;lon;timestamp;P1;durP1;ratioP1;P2;durP2;ratioP2
64342;SDS011;50675;53.530;-6.312;2022-09-02T00:01:42;7.13;;;3.28;;
64342;SDS011;50675;53.530;-6.312;2022-09-02T00:04:12;4.60;;;2.97;;
64342;SDS011;50675;53.530;-6.312;2022-09-02T00:06:44;6.72;;;2.80;;
64342;SDS011;50675;53.530;-6.312;2022-09-02T00:09:13;7.25;;;3.17;;
64342;SDS011;50675;53.530;-6.312;2022-09-02T00:12:12;6.30;;;3.00;;
64342;SDS011;50675;53.530;-6.312;2022-09-02T00:14:58;6.35;;;2.83;;
64342;SDS011;50675;53.530;-6.312;2022-09-02T00:17:24;6.95;;;3.20;;
64342;SDS011;50675;53.530;-6.312;2022-09-02T00:19:50;7.28;;;3.08;;
64342;SDS011;50675;53.530;-6.312;2022-09-02T00:22:18;8.30;;;3.22;;
64342;SDS011;50675;53.530;-6.312;2022-09-02T00:24:45;6.72;;;3.08;;
64342;SDS011;50675;53.530;-6.312;2022-09-02T00:27:14;6.35;;;3.08;;
64342;SDS011;50675;53.530;-6.312;2022-09-02T00:29:40;5.80;;;3.10;;
64342;SDS011;50675;53.530;-6.312;2022-09-02T00:32:06;5.82;;;2.92;;
64342;SDS011;50675;53.530;-6.312;2022-09-02T00:34:32;6.97;;;3.00;;
64342;SDS011;50675;53.530;-6.312;2022-09-02T00:36:58;7.32;;;3.45;;
64342;SDS011;50675;53.530;-6.312;2022-09-02T00:39:26;6.25;;;3.20;;
64342;SDS011;50675;53.530;-6.312;2022-09-02T00:41:52;10.00;;;3.63;;
64342;SDS011;50675;53.530;-6.312;2022-09-02T00:44:20;6.13;;;3.13;;
64342;SDS011;50675;53.530;-6.312;2022-09-02T00:46:52;5.55;;;3.05;;
64342;SDS011;50675;53.530;-6.312;2022-09-02T00:49:25;9.27;;;3.53;;
64342;SDS011;50675;53.530;-6.312;2022-09-02T00:54:30;7.30;;;3.90;;
64342;SDS011;50675;53.530;-6.312;2022-09-02T00:57:02;8.57;;;3.38;;
64342;SDS011;50675;53.530;-6.312;2022-09-02T01:02:26;5.38;;;3.13;;
64342;SDS011;50675;53.530;-6.312;2022-09-02T01:04:55;8.95;;;3.17;;
64342;SDS011;50675;53.530;-6.312;2022-09-02T01:07:23;9.27;;;3.70;;
64342;SDS011;50675;53.530;-6.312;2022-09-02T01:10:00;7.57;;;3.30;;
64342;SDS011;50675;53.530;-6.312;2022-09-02T01:12:43;5.78;;;3.47;;
64342;SDS011;50675;53.530;-6.312;2022-09-02T01:15:18;7.82;;;3.08;;
64342;SDS011;50675;53.530;-6.312;2022-09-02T01:17:48;8.15;;;3.20;;
64342;SDS011;50675;53.530;-6.312;2022-09-02T01:20:17;7.05;;;3.20;;
64342;SDS011;50675;53.530;-6.312;2022-09-02T01:22:47;7.80;;;3.08;;
64342;SDS011;50675;53.530;-6.312;2022-09-02T01:25:15;6.68;;;3.55;;
64342;SDS011;50675;53.530;-6.312;2022-09-02T01:27:49;7.57;;;3.33;;
64342;SDS011;50675;53.530;-6.312;2022-09-02T01:30:18;5.70;;;3.15;;
64342;SDS011;50675;53.530;-6.312;2022-09-02T01:32:49;7.93;;;3.22;;
64342;SDS011;50675;53.530;-6.312;2022-09-02T01:35:15;8.48;;;3.20;;
64342;SDS011;50675;53.530;-6.312;2022-09-02T01:38:12;8.13;;;2.85;;
64342;SDS011;50675;53.530;-6.312;2022-09-02T01:40:53;7.50;;;3.33;;
64342;SDS011;50675;53.530;-6.312;2022-09-02T01:43:21;7.63;;;3.33;;
64342;SDS011;50675;53.530;-6.312;2022-09-02T01:45:51;6.15;;;3.20;;
64342;SDS011;50675;53.530;-6.312;2022-09-02T01:48:18;6.32;;;3.10;;
64342;SDS011;50675;53.530;-6.312;2022-09-02T01:50:47;7.45;;;3.15;;
64342;SDS011;50675;53.530;-6.312;2022-09-02T01:53:20;6.70;;;3.33;;
64342;SDS011;50675;53.530;-6.312;2022-09-02T01:55:47;7.47;;;3.58;;
64342;SDS011;50675;53.530;-6.312;2022-09-02T01:58:13;8.55;;;3.58;;
64342;SDS011;50675;53.530;-6.312;2022-09-02T02:00:39;8.93;;;3.40;;
64342;SDS011;50675;53.530;-6.312;2022-09-02T02:03:05;7.93;;;3.72;;
64342;SDS011;50675;53.530;-6.312;2022-09-02T02:05:31;11.18;;;3.70;;
64342;SDS011;50675;53.530;-6.312;2022-09-02T02:07:58;8.13;;;3.33;;
64342;SDS011;50675;53.530;-6.312;2022-09-02T02:10:35;8.48;;;3.78;;
64342;SDS011;50675;53.530;-6.312;2022-09-02T02:13:01;10.95;;;4.45;;
64342;SDS011;50675;53.530;-6.312;2022-09-02T02:15:30;9.32;;;4.47;;
64342;SDS011;50675;53.530;-6.312;2022-09-02T02:18:11;8.38;;;3.45;;
64342;SDS011;50675;53.530;-6.312;2022-09-02T02:20:41;6.85;;;3.53;;
64342;SDS011;50675;53.530;-6.312;2022-09-02T02:23:10;6.55;;;3.30;;
64342;SDS011;50675;53.530;-6.312;2022-09-02T02:25:36;8.75;;;3.50;;
64342;SDS011;50675;53.530;-6.312;2022-09-02T02:28:03;8.50;;;3.63;;
64342;SDS011;50675;53.530;-6.312;2022-09-02T02:30:29;8.63;;;3.25;;
64342;SDS011;50675;53.530;-6.312;2022-09-02T02:32:56;10.27;;;3.70;;
64342;SDS011;50675;53.530;-6.312;2022-09-02T02:35:24;8.05;;;4.28;;
64342;SDS011;50675;53.530;-6.312;2022-09-02T02:38:07;7.93;;;4.05;;
64342;SDS011;50675;53.530;-6.312;2022-09-02T02:40:41;9.27;;;4.05;;
64342;SDS011;50675;53.530;-6.312;2022-09-02T02:43:06;6.93;;;3.20;;
64342;SDS011;50675;53.530;-6.312;2022-09-02T02:45:33;7.43;;;3.25;;
64342;SDS011;50675;53.530;-6.312;2022-09-02T02:48:01;9.13;;;3.60;;
64342;SDS011;50675;53.530;-6.312;2022-09-02T02:50:29;7.63;;;3.28;;
64342;SDS011;50675;53.530;-6.312;2022-09-02T02:53:15;7.93;;;4.40;;
64342;SDS011;50675;53.530;-6.312;2022-09-02T02:56:17;8.68;;;4.10;;
64342;SDS011;50675;53.530;-6.312;2022-09-02T02:58:43;12.68;;;4.70;;
64342;SDS011;50675;53.530;-6.312;2022-09-02T03:01:10;7.63;;;4.07;;
64342;SDS011;50675;53.530;-6.312;2022-09-02T03:03:39;6.65;;;3.90;;
64342;SDS011;50675;53.530;-6.312;2022-09-02T03:06:06;7.25;;;3.50;;
64342;SDS011;50675;53.530;-6.312;2022-09-02T03:08:35;8.38;;;4.10;;
64342;SDS011;50675;53.530;-6.312;2022-09-02T03:11:05;6.88;;;3.70;;
64342;SDS011;50675;53.530;-6.312;2022-09-02T03:13:31;9.35;;;3.55;;
64342;SDS011;50675;53.530;-6.312;2022-09-02T03:16:02;8.05;;;4.55;;
64342;SDS011;50675;53.530;-6.312;2022-09-02T03:18:29;6.72;;;4.22;;
64342;SDS011;50675;53.530;-6.312;2022-09-02T03:20:55;9.10;;;4.68;;
64342;SDS011;50675;53.530;-6.312;2022-09-02T03:23:39;10.27;;;4.25;;
64342;SDS011;50675;53.530;-6.312;2022-09-02T03:28:43;8.07;;;3.92;;
64342;SDS011;50675;53.530;-6.312;2022-09-02T03:31:14;10.35;;;4.05;;
64342;SDS011;50675;53.530;-6.312;2022-09-02T03:33:51;8.30;;;3.92;;
64342;SDS011;50675;53.530;-6.312;2022-09-02T03:36:35;9.82;;;4.50;;
64342;SDS011;50675;53.530;-6.312;2022-09-02T03:39:03;9.90;;;4.70;;
64342;SDS011;50675;53.530;-6.312;2022-09-02T03:41:37;8.30;;;4.90;;
64342;SDS011;50675;53.530;-6.312;2022-09-02T03:44:06;12.80;;;4.18;;
64342;SDS011;50675;53.530;-6.312;2022-09-02T03:46:35;8.88;;;5.18;;
64342;SDS011;50675;53.530;-6.312;2022-09-02T03:49:02;8.50;;;4.00;;
64342;SDS011;50675;53.530;-6.312;2022-09-02T03:51:30;8.65;;;3.88;;
64342;SDS011;50675;53.530;-6.312;2022-09-02T03:53:56;10.45;;;4.22;;
64342;SDS011;50675;53.530;-6.312;2022-09-02T03:56:26;7.53;;;4.03;;
64342;SDS011;50675;53.530;-6.312;2022-09-02T03:59:23;8.18;;;3.95;;
64342;SDS011;50675;53.530;-6.312;2022-09-02T04:01:49;10.63;;;4.72;;
64342;SDS011;50675;53.530;-6.312;2022-09-02T04:04:17;9.30;;;4.60;;
64342;SDS011;50675;53.530;-6.312;2022-09-02T04:06:46;7.55;;;5.03;;
64342;SDS011;50675;53.530;-6.312;2022-09-02T04:09:18;7.28;;;4.60;;
64342;SDS011;50675;53.530;-6.312;2022-09-02T04:11:47;7.43;;;4.47;;
64342;SDS011;50675;53.530;-6.312;2022-09-02T04:14:13;10.43;;;4.75;;
64342;SDS011;50675;53.530;-6.312;2022-09-02T04:16:40;6.60;;;4.55;;
64342;SDS011;50675;53.530;-6.312;2022-09-02T04:19:06;6.70;;;4.25;;
64342;SDS011;50675;53.530;-6.312;2022-09-02T04:21:34;8.48;;;4.70;;
64342;SDS011;50675;53.530;-6.312;2022-09-02T04:24:19;11.65;;;5.15;;
64342;SDS011;50675;53.530;-6.312;2022-09-02T04:26:49;10.07;;;5.68;;
64342;SDS011;50675;53.530;-6.312;2022-09-02T04:29:15;8.73;;;4.72;;
64342;SDS011;50675;53.530;-6.312;2022-09-02T04:31:45;8.68;;;5.18;;
64342;SDS011;50675;53.530;-6.312;2022-09-02T04:34:11;13.40;;;4.97;;
64342;SDS011;50675;53.530;-6.312;2022-09-02T04:36:39;11.13;;;6.13;;
64342;SDS011;50675;53.530;-6.312;2022-09-02T04:39:06;8.20;;;5.25;;
64342;SDS011;50675;53.530;-6.312;2022-09-02T04:41:36;10.65;;;4.80;;
64342;SDS011;50675;53.530;-6.312;2022-09-02T04:44:11;8.05;;;4.40;;
64342;SDS011;50675;53.530;-6.312;2022-09-02T04:46:41;9.05;;;4.70;;
64342;SDS011;50675;53.530;-6.312;2022-09-02T04:49:12;10.20;;;5.85;;
64342;SDS011;50675;53.530;-6.312;2022-09-02T04:51:42;9.45;;;5.85;;
64342;SDS011;50675;53.530;-6.312;2022-09-02T04:54:08;10.07;;;5.70;;
64342;SDS011;50675;53.530;-6.312;2022-09-02T04:56:34;13.10;;;5.97;;
64342;SDS011;50675;53.530;-6.312;2022-09-02T04:59:03;9.27;;;5.80;;
64342;SDS011;50675;53.530;-6.312;2022-09-02T05:01:32;10.60;;;5.90;;
64342;SDS011;50675;53.530;-6.312;2022-09-02T05:04:05;11.20;;;5.72;;
64342;SDS011;50675;53.530;-6.312;2022-09-02T05:06:40;11.38;;;6.30;;
64342;SDS011;50675;53.530;-6.312;2022-09-02T05:09:06;9.57;;;6.03;;
64342;SDS011;50675;53.530;-6.312;2022-09-02T05:11:36;8.57;;;5.30;;
64342;SDS011;50675;53.530;-6.312;2022-09-02T05:14:13;8.63;;;6.20;;
64342;SDS011;50675;53.530;-6.312;2022-09-02T05:16:48;11.25;;;6.63;;
64342;SDS011;50675;53.530;-6.312;2022-09-02T05:19:21;10.23;;;6.80;;
64342;SDS011;50675;53.530;-6.312;2022-09-02T05:21:49;9.98;;;6.80;;
64342;SDS011;50675;53.530;-6.312;2022-09-02T05:24:25;9.68;;;6.75;;
64342;SDS011;50675;53.530;-6.312;2022-09-02T05:26:53;10.50;;;6.97;;
64342;SDS011;50675;53.530;-6.312;2022-09-02T05:29:21;11.25;;;6.32;;
64342;SDS011;50675;53.530;-6.312;2022-09-02T05:31:50;8.13;;;5.82;;
64342;SDS011;50675;53.530;-6.312;2022-09-02T05:34:30;10.60;;;6.13;;
64342;SDS011;50675;53.530;-6.312;2022-09-02T05:37:26;8.85;;;6.00;;
64342;SDS011;50675;53.530;-6.312;2022-09-02T05:40:17;10.00;;;6.32;;
64342;SDS011;50675;53.530;-6.312;2022-09-02T05:42:43;11.13;;;6.30;;
64342;SDS011;50675;53.530;-6.312;2022-09-02T05:45:15;15.73;;;6.97;;
64342;SDS011;50675;53.530;-6.312;2022-09-02T05:47:51;9.50;;;5.93;;
64342;SDS011;50675;53.530;-6.312;2022-09-02T05:50:31;12.45;;;5.95;;
64342;SDS011;50675;53.530;-6.312;2022-09-02T05:53:15;10.93;;;6.65;;
64342;SDS011;50675;53.530;-6.312;2022-09-02T05:56:03;11.10;;;6.93;;
64342;SDS011;50675;53.530;-6.312;2022-09-02T05:58:32;9.35;;;6.45;;
64342;SDS011;50675;53.530;-6.312;2022-09-02T06:00:58;9.43;;;6.07;;
64342;SDS011;50675;53.530;-6.312;2022-09-02T06:03:24;12.50;;;6.22;;
64342;SDS011;50675;53.530;-6.312;2022-09-02T06:05:54;8.27;;;6.28;;
64342;SDS011;50675;53.530;-6.312;2022-09-02T06:08:21;10.50;;;6.30;;
64342;SDS011;50675;53.530;-6.312;2022-09-02T06:10:48;9.32;;;6.63;;
64342;SDS011;50675;53.530;-6.312;2022-09-02T06:13:14;11.30;;;7.07;;
64342;SDS011;50675;53.530;-6.312;2022-09-02T06:15:42;10.65;;;7.18;;
64342;SDS011;50675;53.530;-6.312;2022-09-02T06:18:57;9.88;;;6.90;;
64342;SDS011;50675;53.530;-6.312;2022-09-02T06:21:37;12.68;;;7.20;;
64342;SDS011;50675;53.530;-6.312;2022-09-02T06:24:08;11.05;;;7.13;;
64342;SDS011;50675;53.530;-6.312;2022-09-02T06:26:39;10.70;;;7.30;;
64342;SDS011;50675;53.530;-6.312;2022-09-02T06:29:09;11.07;;;7.13;;
64342;SDS011;50675;53.530;-6.312;2022-09-02T06:31:41;11.80;;;6.90;;
64342;SDS011;50675;53.530;-6.312;2022-09-02T06:34:09;14.52;;;7.93;;
64342;SDS011;50675;53.530;-6.312;2022-09-02T06:36:40;13.18;;;7.05;;
64342;SDS011;50675;53.530;-6.312;2022-09-02T06:39:12;10.25;;;7.40;;
64342;SDS011;50675;53.530;-6.312;2022-09-02T06:41:41;10.65;;;7.80;;
64342;SDS011;50675;53.530;-6.312;2022-09-02T06:44:11;13.90;;;8.43;;
64342;SDS011;50675;53.530;-6.312;2022-09-02T06:46:41;10.07;;;7.45;;
64342;SDS011;50675;53.530;-6.312;2022-09-02T06:49:09;12.20;;;7.50;;
64342;SDS011;50675;53.530;-6.312;2022-09-02T06:51:37;11.80;;;7.53;;
64342;SDS011;50675;53.530;-6.312;2022-09-02T06:54:06;14.32;;;8.73;;
64342;SDS011;50675;53.530;-6.312;2022-09-02T06:56:35;12.90;;;8.15;;
64342;SDS011;50675;53.530;-6.312;2022-09-02T06:59:34;16.88;;;8.75;;
64342;SDS011;50675;53.530;-6.312;2022-09-02T07:02:00;11.02;;;6.93;;
64342;SDS011;50675;53.530;-6.312;2022-09-02T07:04:28;12.10;;;6.90;;
64342;SDS011;50675;53.530;-6.312;2022-09-02T07:07:12;11.80;;;6.13;;
64342;SDS011;50675;53.530;-6.312;2022-09-02T07:09:41;10.95;;;6.50;;
64342;SDS011;50675;53.530;-6.312;2022-09-02T07:12:18;10.60;;;6.82;;
64342;SDS011;50675;53.530;-6.312;2022-09-02T07:14:47;11.95;;;7.28;;
64342;SDS011;50675;53.530;-6.312;2022-09-02T07:17:15;12.73;;;7.57;;
64342;SDS011;50675;53.530;-6.312;2022-09-02T07:19:47;11.88;;;7.45;;
64342;SDS011;50675;53.530;-6.312;2022-09-02T07:22:26;12.35;;;6.90;;
64342;SDS011;50675;53.530;-6.312;2022-09-02T07:24:52;11.45;;;7.15;;
64342;SDS011;50675;53.530;-6.312;2022-09-02T07:27:23;14.55;;;7.85;;
64342;SDS011;50675;53.530;-6.312;2022-09-02T07:29:49;12.68;;;8.70;;
64342;SDS011;50675;53.530;-6.312;2022-09-02T07:32:19;9.30;;;7.28;;
64342;SDS011;50675;53.530;-6.312;2022-09-02T07:34:50;11.38;;;7.65;;
64342;SDS011;50675;53.530;-6.312;2022-09-02T07:40:23;13.05;;;8.65;;
64342;SDS011;50675;53.530;-6.312;2022-09-02T07:43:41;14.38;;;7.88;;
64342;SDS011;50675;53.530;-6.312;2022-09-02T07:46:40;16.55;;;8.57;;
64342;SDS011;50675;53.530;-6.312;2022-09-02T07:49:07;17.70;;;9.57;;
64342;SDS011;50675;53.530;-6.312;2022-09-02T07:51:35;14.45;;;8.23;;
64342;SDS011;50675;53.530;-6.312;2022-09-02T07:54:03;13.90;;;7.97;;
64342;SDS011;50675;53.530;-6.312;2022-09-02T07:56:30;13.25;;;7.65;;
64342;SDS011;50675;53.530;-6.312;2022-09-02T07:58:56;11.98;;;7.55;;
64342;SDS011;50675;53.530;-6.312;2022-09-02T08:01:22;15.02;;;8.27;;
64342;SDS011;50675;53.530;-6.312;2022-09-02T08:03:48;15.50;;;8.55;;
64342;SDS011;50675;53.530;-6.312;2022-09-02T08:06:14;13.52;;;8.65;;
64342;SDS011;50675;53.530;-6.312;2022-09-02T09:51:57;14.27;;;5.50;;
64342;SDS011;50675;53.530;-6.312;2022-09-02T09:54:24;15.18;;;5.70;;
64342;SDS011;50675;53.530;-6.312;2022-09-02T09:56:51;14.70;;;6.18;;
64342;SDS011;50675;53.530;-6.312;2022-09-02T09:59:35;13.23;;;5.90;;
64342;SDS011;50675;53.530;-6.312;2022-09-02T10:02:10;9.82;;;6.13;;
64342;SDS011;50675;53.530;-6.312;2022-09-02T10:04:45;13.23;;;5.55;;
64342;SDS011;50675;53.530;-6.312;2022-09-02T10:07:11;10.23;;;5.35;;
64342;SDS011;50675;53.530;-6.312;2022-09-02T10:09:40;13.63;;;4.50;;
64342;SDS011;50675;53.530;-6.312;2022-09-02T10:12:10;9.85;;;5.53;;
64342;SDS011;50675;53.530;-6.312;2022-09-02T10:14:42;11.40;;;5.72;;
64342;SDS011;50675;53.530;-6.312;2022-09-02T10:22:43;9.80;;;6.40;;
64342;SDS011;50675;53.530;-6.312;2022-09-02T10:30:58;13.95;;;7.25;;
64342;SDS011;50675;53.530;-6.312;2022-09-02T10:33:45;10.85;;;5.85;;
64342;SDS011;50675;53.530;-6.312;2022-09-02T10:36:31;8.85;;;5.60;;
64342;SDS011;50675;53.530;-6.312;2022-09-02T10:42:10;12.88;;;6.40;;
64342;SDS011;50675;53.530;-6.312;2022-09-02T10:49:56;8.63;;;4.88;;
64342;SDS011;50675;53.530;-6.312;2022-09-02T10:53:09;11.32;;;5.57;;
64342;SDS011;50675;53.530;-6.312;2022-09-02T11:00:54;16.75;;;5.85;;
64342;SDS011;50675;53.530;-6.312;2022-09-02T11:03:27;12.07;;;5.00;;
64342;SDS011;50675;53.530;-6.312;2022-09-02T11:08:46;10.27;;;4.40;;
64342;SDS011;50675;53.530;-6.312;2022-09-02T11:11:34;8.05;;;3.53;;
64342;SDS011;50675;53.530;-6.312;2022-09-02T11:27:37;8.32;;;3.17;;
64342;SDS011;50675;53.530;-6.312;2022-09-02T11:30:07;10.50;;;4.03;;
64342;SDS011;50675;53.530;-6.312;2022-09-02T11:32:58;8.90;;;3.35;;
64342;SDS011;50675;53.530;-6.312;2022-09-02T11:35:36;9.55;;;3.42;;
64342;SDS011;50675;53.530;-6.312;2022-09-02T11:38:50;8.98;;;3.70;;
64342;SDS011;50675;53.530;-6.312;2022-09-02T11:43:30;8.77;;;4.00;;
64342;SDS011;50675;53.530;-6.312;2022-09-02T11:54:24;11.75;;;4.03;;
64342;SDS011;50675;53.530;-6.312;2022-09-02T11:56:55;8.10;;;3.95;;
64342;SDS011;50675;53.530;-6.312;2022-09-02T12:02:30;13.90;;;4.72;;
64342;SDS011;50675;53.530;-6.312;2022-09-02T12:07:57;8.00;;;3.83;;
64342;SDS011;50675;53.530;-6.312;2022-09-02T12:18:44;8.23;;;3.70;;
64342;SDS011;50675;53.530;-6.312;2022-09-02T12:21:32;11.45;;;3.97;;
64342;SDS011;50675;53.530;-6.312;2022-09-02T12:24:10;9.43;;;4.35;;
64342;SDS011;50675;53.530;-6.312;2022-09-02T12:29:11;7.50;;;4.13;;
64342;SDS011;50675;53.530;-6.312;2022-09-02T12:31:41;9.30;;;3.40;;
64342;SDS011;50675;53.530;-6.312;2022-09-02T12:57:45;8.27;;;3.10;;
64342;SDS011;50675;53.530;-6.312;2022-09-02T13:00:28;6.97;;;3.42;;
64342;SDS011;50675;53.530;-6.312;2022-09-02T13:32:32;7.10;;;3.30;;
64342;SDS011;50675;53.530;-6.312;2022-09-02T13:35:15;9.98;;;3.47;;
64342;SDS011;50675;53.530;-6.312;2022-09-02T13:37:43;12.48;;;5.03;;
64342;SDS011;50675;53.530;-6.312;2022-09-02T13:40:20;10.32;;;4.47;;
64342;SDS011;50675;53.530;-6.312;2022-09-02T13:43:44;9.23;;;4.65;;
64342;SDS011;50675;53.530;-6.312;2022-09-02T13:47:19;12.88;;;5.07;;
64342;SDS011;50675;53.530;-6.312;2022-09-02T13:53:41;12.13;;;4.65;;
64342;SDS011;50675;53.530;-6.312;2022-09-02T13:56:55;14.15;;;5.60;;
64342;SDS011;50675;53.530;-6.312;2022-09-02T14:05:30;11.95;;;6.22;;
64342;SDS011;50675;53.530;-6.312;2022-09-02T14:08:06;10.23;;;5.82;;
64342;SDS011;50675;53.530;-6.312;2022-09-02T14:10:48;9.98;;;5.97;;
64342;SDS011;50675;53.530;-6.312;2022-09-02T14:13:30;9.95;;;5.85;;
64342;SDS011;50675;53.530;-6.312;2022-09-02T14:28:49;12.30;;;5.80;;
64342;SDS011;50675;53.530;-6.312;2022-09-02T14:35:20;9.73;;;4.70;;
64342;SDS011;50675;53.530;-6.312;2022-09-02T14:38:21;9.45;;;4.72;;
64342;SDS011;50675;53.530;-6.312;2022-09-02T14:41:49;10.32;;;5.50;;
64342;SDS011;50675;53.530;-6.312;2022-09-02T14:44:55;11.20;;;5.35;;
64342;SDS011;50675;53.530;-6.312;2022-09-02T14:47:43;13.00;;;5.80;;
64342;SDS011;50675;53.530;-6.312;2022-09-02T14:53:17;11.55;;;4.97;;
64342;SDS011;50675;53.530;-6.312;2022-09-02T15:00:22;9.93;;;5.10;;
64342;SDS011;50675;53.530;-6.312;2022-09-02T15:13:48;8.60;;;4.57;;
64342;SDS011;50675;53.530;-6.312;2022-09-02T15:16:14;8.43;;;4.25;;
64342;SDS011;50675;53.530;-6.312;2022-09-02T15:18:40;11.73;;;4.50;;
64342;SDS011;50675;53.530;-6.312;2022-09-02T15:21:05;7.07;;;4.50;;
64342;SDS011;50675;53.530;-6.312;2022-09-02T15:23:31;8.38;;;4.20;;
64342;SDS011;50675;53.530;-6.312;2022-09-02T15:25:57;7.78;;;4.80;;
64342;SDS011;50675;53.530;-6.312;2022-09-02T15:28:24;10.55;;;4.57;;
64342;SDS011;50675;53.530;-6.312;2022-09-02T15:30:56;10.13;;;4.68;;
64342;SDS011;50675;53.530;-6.312;2022-09-02T15:35:50;7.00;;;4.50;;
64342;SDS011;50675;53.530;-6.312;2022-09-02T15:38:15;9.77;;;4.93;;
64342;SDS011;50675;53.530;-6.312;2022-09-02T15:40:41;14.30;;;5.03;;
64342;SDS011;50675;53.530;-6.312;2022-09-02T15:43:09;8.15;;;4.82;;
64342;SDS011;50675;53.530;-6.312;2022-09-02T15:45:45;8.73;;;4.88;;
64342;SDS011;50675;53.530;-6.312;2022-09-02T15:48:14;11.82;;;4.93;;
64342;SDS011;50675;53.530;-6.312;2022-09-02T15:50:39;7.68;;;4.18;;
64342;SDS011;50675;53.530;-6.312;2022-09-02T15:53:05;6.63;;;4.38;;
64342;SDS011;50675;53.530;-6.312;2022-09-02T15:55:31;8.85;;;4.78;;
64342;SDS011;50675;53.530;-6.312;2022-09-02T15:57:58;6.18;;;4.13;;
64342;SDS011;50675;53.530;-6.312;2022-09-02T16:00:24;8.70;;;4.32;;
64342;SDS011;50675;53.530;-6.312;2022-09-02T16:02:50;10.93;;;4.90;;
64342;SDS011;50675;53.530;-6.312;2022-09-02T16:05:18;8.63;;;4.05;;
64342;SDS011;50675;53.530;-6.312;2022-09-02T16:07:45;7.72;;;4.43;;
64342;SDS011;50675;53.530;-6.312;2022-09-02T16:10:12;7.88;;;4.10;;
64342;SDS011;50675;53.530;-6.312;2022-09-02T16:12:39;8.63;;;4.97;;
64342;SDS011;50675;53.530;-6.312;2022-09-02T16:15:05;8.63;;;4.68;;
64342;SDS011;50675;53.530;-6.312;2022-09-02T16:17:31;7.97;;;4.32;;
64342;SDS011;50675;53.530;-6.312;2022-09-02T16:19:57;8.90;;;4.82;;
64342;SDS011;50675;53.530;-6.312;2022-09-02T16:22:23;7.93;;;4.78;;
64342;SDS011;50675;53.530;-6.312;2022-09-02T16:24:49;9.02;;;4.35;;
64342;SDS011;50675;53.530;-6.312;2022-09-02T16:27:15;8.30;;;4.95;;
64342;SDS011;50675;53.530;-6.312;2022-09-02T16:30:01;9.27;;;4.93;;
64342;SDS011;50675;53.530;-6.312;2022-09-02T16:32:26;9.95;;;4.88;;
64342;SDS011;50675;53.530;-6.312;2022-09-02T16:34:52;10.55;;;5.20;;
64342;SDS011;50675;53.530;-6.312;2022-09-02T16:37:19;10.13;;;5.40;;
64342;SDS011;50675;53.530;-6.312;2022-09-02T16:39:45;10.02;;;5.22;;
64342;SDS011;50675;53.530;-6.312;2022-09-02T16:42:11;8.73;;;5.22;;
64342;SDS011;50675;53.530;-6.312;2022-09-02T16:44:36;7.60;;;4.90;;
64342;SDS011;50675;53.530;-6.312;2022-09-02T16:47:02;9.27;;;5.35;;
64342;SDS011;50675;53.530;-6.312;2022-09-02T16:49:28;10.45;;;5.30;;
64342;SDS011;50675;53.530;-6.312;2022-09-02T16:51:54;9.48;;;6.00;;
64342;SDS011;50675;53.530;-6.312;2022-09-02T16:54:19;12.35;;;6.05;;
64342;SDS011;50675;53.530;-6.312;2022-09-02T16:56:46;13.82;;;6.43;;
64342;SDS011;50675;53.530;-6.312;2022-09-02T16:59:12;12.23;;;6.05;;
64342;SDS011;50675;53.530;-6.312;2022-09-02T17:01:38;11.75;;;6.78;;
64342;SDS011;50675;53.530;-6.312;2022-09-02T17:04:04;8.82;;;6.00;;
64342;SDS011;50675;53.530;-6.312;2022-09-02T17:06:30;13.52;;;7.05;;
64342;SDS011;50675;53.530;-6.312;2022-09-02T17:08:57;13.30;;;7.18;;
64342;SDS011;50675;53.530;-6.312;2022-09-02T17:13:50;7.70;;;6.47;;
64342;SDS011;50675;53.530;-6.312;2022-09-02T17:16:24;10.18;;;5.93;;
64342;SDS011;50675;53.530;-6.312;2022-09-02T17:18:52;9.77;;;5.70;;
64342;SDS011;50675;53.530;-6.312;2022-09-02T17:23:43;13.98;;;6.30;;
64342;SDS011;50675;53.530;-6.312;2022-09-02T17:26:09;10.32;;;5.93;;
64342;SDS011;50675;53.530;-6.312;2022-09-02T17:28:35;9.98;;;5.60;;
64342;SDS011;50675;53.530;-6.312;2022-09-02T17:31:45;9.93;;;5.47;;
64342;SDS011;50675;53.530;-6.312;2022-09-02T17:34:04;8.02;;;5.20;;
64342;SDS011;50675;53.530;-6.312;2022-09-02T17:36:32;12.45;;;5.47;;
64342;SDS011;50675;53.530;-6.312;2022-09-02T17:39:00;11.05;;;5.32;;
64342;SDS011;50675;53.530;-6.312;2022-09-02T17:41:33;8.88;;;4.82;;
64342;SDS011;50675;53.530;-6.312;2022-09-02T17:44:18;7.53;;;4.97;;
64342;SDS011;50675;53.530;-6.312;2022-09-02T17:46:44;9.43;;;4.60;;
64342;SDS011;50675;53.530;-6.312;2022-09-02T17:49:11;8.68;;;5.13;;
64342;SDS011;50675;53.530;-6.312;2022-09-02T17:51:38;9.00;;;4.80;;
64342;SDS011;50675;53.530;-6.312;2022-09-02T17:54:04;11.60;;;4.60;;
64342;SDS011;50675;53.530;-6.312;2022-09-02T18:13:08;8.02;;;5.10;;
64342;SDS011;50675;53.530;-6.312;2022-09-02T18:15:51;7.05;;;4.57;;
64342;SDS011;50675;53.530;-6.312;2022-09-02T18:18:23;11.05;;;4.80;;
64342;SDS011;50675;53.530;-6.312;2022-09-02T18:32:22;7.22;;;4.00;;
64342;SDS011;50675;53.530;-6.312;2022-09-02T18:35:03;7.80;;;4.45;;
64342;SDS011;50675;53.530;-6.312;2022-09-02T18:51:26;6.85;;;4.80;;
64342;SDS011;50675;53.530;-6.312;2022-09-02T18:53:58;8.48;;;4.15;;
64342;SDS011;50675;53.530;-6.312;2022-09-02T18:56:31;11.43;;;4.90;;
64342;SDS011;50675;53.530;-6.312;2022-09-02T22:02:15;15.73;;;10.23;;
64342;SDS011;50675;53.530;-6.312;2022-09-02T22:09:52;16.02;;;9.73;;
64342;SDS011;50675;53.530;-6.312;2022-09-02T22:15:13;15.57;;;9.65;;
64342;SDS011;50675;53.530;-6.312;2022-09-02T22:18:05;15.85;;;10.52;;
64342;SDS011;50675;53.530;-6.312;2022-09-02T22:20:40;18.00;;;12.15;;
64342;SDS011;50675;53.530;-6.312;2022-09-02T22:23:16;16.08;;;11.38;;
64342;SDS011;50675;53.530;-6.312;2022-09-02T22:25:50;15.80;;;10.13;;
64342;SDS011;50675;53.530;-6.312;2022-09-02T22:28:20;19.85;;;10.13;;
64342;SDS011;50675;53.530;-6.312;2022-09-02T22:30:56;14.98;;;9.40;;
64342;SDS011;50675;53.530;-6.312;2022-09-02T22:33:30;13.65;;;9.57;;
64342;SDS011;50675;53.530;-6.312;2022-09-02T22:38:45;13.30;;;8.93;;
64342;SDS011;50675;53.530;-6.312;2022-09-02T22:41:13;11.73;;;8.75;;
64342;SDS011;50675;53.530;-6.312;2022-09-02T22:43:49;10.30;;;7.90;;
64342;SDS011;50675;53.530;-6.312;2022-09-02T22:49:26;11.68;;;7.18;;
64342;SDS011;50675;53.530;-6.312;2022-09-02T22:52:25;10.75;;;7.55;;
64342;SDS011;50675;53.530;-6.312;2022-09-02T23:01:01;14.50;;;7.63;;
64342;SDS011;50675;53.530;-6.312;2022-09-02T23:06:40;11.63;;;7.72;;
64342;SDS011;50675;53.530;-6.312;2022-09-02T23:09:08;12.63;;;7.60;;
64342;SDS011;50675;53.530;-6.312;2022-09-02T23:11:41;11.35;;;7.32;;
64342;SDS011;50675;53.530;-6.312;2022-09-02T23:14:49;13.60;;;7.80;;
64342;SDS011;50675;53.530;-6.312;2022-09-02T23:22:49;12.93;;;7.55;;
64342;SDS011;50675;53.530;-6.312;2022-09-02T23:28:11;13.07;;;8.23;;
64342;SDS011;50675;53.530;-6.312;2022-09-02T23:42:13;17.63;;;11.48;;
64342;SDS011;50675;53.530;-6.312;2022-09-02T23:44:40;21.77;;;13.27;;
64342;SDS011;50675;53.530;-6.312;2022-09-02T23:52:56;22.83;;;14.73;;
